createdAt,value
2022-12-18T00:02:12.214Z,100.00
2022-12-18T00:07:15.641Z,100.00
2022-12-18T00:17:26.753Z,100.00
2022-12-18T00:22:29.755Z,100.00
2022-12-18T00:27:32.761Z,100.00
2022-12-18T00:32:35.864Z,100.00
2022-12-18T00:37:38.971Z,100.00
2022-12-18T00:42:57.434Z,100.00
2022-12-18T00:48:00.643Z,100.00
2022-12-18T00:53:03.952Z,100.00
2022-12-18T00:58:07.672Z,100.00
2022-12-18T01:03:11.020Z,100.00
2022-12-18T01:08:14.190Z,100.00
2022-12-18T01:13:17.295Z,100.00
2022-12-18T01:18:20.298Z,100.00
2022-12-18T01:23:23.405Z,100.00
2022-12-18T01:28:26.518Z,100.00
2022-12-18T01:33:29.615Z,100.00
2022-12-18T01:38:32.824Z,100.00
2022-12-18T01:43:46.475Z,100.00
2022-12-18T01:48:51.898Z,100.00
2022-12-18T01:53:55.453Z,100.00
2022-12-18T01:59:07.258Z,100.00
2022-12-18T02:04:36.479Z,100.00
2022-12-18T02:09:47.876Z,100.00
2022-12-18T02:14:56.536Z,100.00
2022-12-18T02:20:14.420Z,100.00
2022-12-18T02:25:17.364Z,100.00
2022-12-18T02:30:20.984Z,100.00
2022-12-18T02:35:26.036Z,100.00
2022-12-18T02:40:29.762Z,100.00
2022-12-18T02:45:32.876Z,100.00
2022-12-18T02:50:39.449Z,100.00
2022-12-18T02:55:50.949Z,100.00
2022-12-18T03:00:59.190Z,100.00
2022-12-18T03:06:08.013Z,100.00
2022-12-18T03:11:12.244Z,100.00
2022-12-18T03:16:26.762Z,100.00
2022-12-18T03:21:33.309Z,100.00
2022-12-18T03:26:38.769Z,100.00
2022-12-18T03:31:43.203Z,100.00
2022-12-18T03:36:46.515Z,100.00
2022-12-18T03:41:57.199Z,100.00
2022-12-18T03:47:29.804Z,100.00
2022-12-18T03:52:42.219Z,100.00
2022-12-18T03:57:45.733Z,100.00
2022-12-18T04:02:53.179Z,100.00
2022-12-18T04:07:57.372Z,100.00
2022-12-18T04:13:00.373Z,100.00
2022-12-18T04:18:03.682Z,100.00
2022-12-18T04:23:06.789Z,100.00
2022-12-18T04:28:09.892Z,100.00
2022-12-18T04:33:13.510Z,100.00
2022-12-18T04:38:16.720Z,100.00
2022-12-18T04:43:19.951Z,100.00
2022-12-18T04:48:23.237Z,100.00
2022-12-18T04:53:26.138Z,100.00
2022-12-18T04:58:29.242Z,100.00
2022-12-18T05:03:32.713Z,100.00
2022-12-18T05:08:35.760Z,100.00
2022-12-18T05:13:39.675Z,100.00
2022-12-18T05:18:43.096Z,100.00
2022-12-18T05:23:46.817Z,100.00
2022-12-18T05:28:49.819Z,100.00
2022-12-18T05:33:52.823Z,100.00
2022-12-18T05:38:55.926Z,100.00
2022-12-18T05:43:59.749Z,100.00
2022-12-18T05:49:02.870Z,100.00
2022-12-18T05:54:05.960Z,100.00
2022-12-18T05:59:11.113Z,100.00
2022-12-18T06:04:14.462Z,100.00
2022-12-18T06:09:17.528Z,100.00
2022-12-18T06:14:20.633Z,100.00
2022-12-18T06:19:23.743Z,100.00
2022-12-18T06:24:27.048Z,100.00
2022-12-18T06:29:30.152Z,100.00
2022-12-18T06:34:33.875Z,100.00
2022-12-18T06:39:36.980Z,100.00
2022-12-18T06:44:40.088Z,100.00
2022-12-18T06:49:43.196Z,100.00
2022-12-18T06:54:46.213Z,100.00
2022-12-18T06:59:49.813Z,100.00
2022-12-18T07:04:52.836Z,100.00
2022-12-18T07:09:55.962Z,100.00
2022-12-18T07:14:58.991Z,100.00
2022-12-18T07:20:02.538Z,100.00
2022-12-18T07:25:06.670Z,100.00
2022-12-18T07:30:10.693Z,100.00
2022-12-18T07:35:14.011Z,100.00
2022-12-18T07:40:17.519Z,100.00
2022-12-18T07:45:20.726Z,100.00
2022-12-18T07:50:25.267Z,100.00
2022-12-18T07:55:28.507Z,100.00
2022-12-18T08:00:32.820Z,100.00
2022-12-18T08:05:36.323Z,100.00
2022-12-18T08:10:40.458Z,100.00
2022-12-18T08:15:43.660Z,100.00
2022-12-18T08:20:46.866Z,100.00
2022-12-18T08:25:51.201Z,100.00
2022-12-18T08:30:54.450Z,100.00
2022-12-18T08:35:59.562Z,100.00
2022-12-18T08:41:03.499Z,100.00
2022-12-18T08:46:06.640Z,100.00
2022-12-18T08:51:10.923Z,100.00
2022-12-18T08:56:14.751Z,100.00
2022-12-18T09:01:18.514Z,99.90
2022-12-18T09:06:22.702Z,99.93
2022-12-18T09:11:27.034Z,100.00
2022-12-18T09:16:33.035Z,100.00
2022-12-18T09:21:37.502Z,100.00
2022-12-18T09:26:40.853Z,100.00
2022-12-18T09:31:46.929Z,100.00
2022-12-18T09:36:50.447Z,100.00
2022-12-18T09:41:56.107Z,100.00
2022-12-18T09:47:09.658Z,100.00
2022-12-18T09:52:15.835Z,100.00
2022-12-18T09:57:21.504Z,100.00
2022-12-18T10:02:26.041Z,100.00
2022-12-18T10:07:35.288Z,98.87
2022-12-18T10:13:04.050Z,96.65
2022-12-18T10:18:21.705Z,96.50
2022-12-18T10:23:47.846Z,96.47
2022-12-18T10:28:52.530Z,96.31
2022-12-18T10:33:55.738Z,97.87
2022-12-18T10:39:18.049Z,97.93
2022-12-18T10:44:21.512Z,97.41
2022-12-18T10:49:27.498Z,97.66
2022-12-18T10:54:32.112Z,97.20
2022-12-18T10:59:50.687Z,97.05
2022-12-18T11:04:54.304Z,97.75
2022-12-18T11:10:05.096Z,98.25
2022-12-18T11:15:17.463Z,98.14
2022-12-18T11:20:23.999Z,98.13
2022-12-18T11:25:33.339Z,99.15
2022-12-18T11:30:38.345Z,99.37
2022-12-18T11:35:41.405Z,98.77
2022-12-18T11:40:47.170Z,99.07
2022-12-18T11:45:53.144Z,99.73
2022-12-18T11:50:57.987Z,99.93
2022-12-18T11:56:01.195Z,100.00
2022-12-18T12:01:23.277Z,100.00
2022-12-18T12:06:34.441Z,100.00
2022-12-18T12:12:01.738Z,100.00
2022-12-18T12:17:08.198Z,100.00
2022-12-18T12:22:19.702Z,100.00
2022-12-18T12:27:26.695Z,100.00
2022-12-18T12:32:35.638Z,100.00
2022-12-18T12:37:56.868Z,100.00
2022-12-18T12:43:13.797Z,100.00
2022-12-18T12:48:32.733Z,100.00
2022-12-18T12:53:37.727Z,100.00
2022-12-18T12:59:01.750Z,100.00
2022-12-18T13:04:05.083Z,100.00
2022-12-18T13:09:08.957Z,100.00
2022-12-18T13:14:33.167Z,100.00
2022-12-18T13:19:36.875Z,100.00
2022-12-18T13:24:39.977Z,100.00
2022-12-18T13:29:47.422Z,100.00
2022-12-18T13:35:11.382Z,100.00
2022-12-18T13:40:43.466Z,100.00
2022-12-18T13:46:06.754Z,100.00
2022-12-18T13:51:11.178Z,100.00
2022-12-18T13:56:18.287Z,100.00
2022-12-18T14:01:25.661Z,100.00
2022-12-18T14:06:29.301Z,100.00
2022-12-18T14:11:34.976Z,100.00
2022-12-18T14:16:42.089Z,100.00
2022-12-18T14:21:47.732Z,100.00
2022-12-18T14:26:51.456Z,100.00
2022-12-18T14:32:09.403Z,100.00
2022-12-18T14:37:16.912Z,100.00
2022-12-18T14:42:20.021Z,100.00
2022-12-18T14:47:23.740Z,100.00
2022-12-18T14:52:28.997Z,100.00
2022-12-18T14:57:36.915Z,100.00
2022-12-18T15:02:40.327Z,100.00
2022-12-18T15:07:44.968Z,100.00
2022-12-18T15:12:50.742Z,100.00
2022-12-18T15:17:59.581Z,100.00
2022-12-18T15:23:02.884Z,100.00
2022-12-18T15:28:17.462Z,100.00
2022-12-18T15:33:25.962Z,100.00
2022-12-18T15:38:29.112Z,100.00
2022-12-18T15:43:35.993Z,100.00
2022-12-18T15:48:43.710Z,100.00
2022-12-18T15:53:47.738Z,100.00
2022-12-18T15:58:50.840Z,100.00
2022-12-18T16:03:55.133Z,100.00
2022-12-18T16:08:58.587Z,100.00
2022-12-18T16:14:01.507Z,100.00
2022-12-18T16:19:05.107Z,100.00
2022-12-18T16:24:14.559Z,100.00
2022-12-18T16:29:17.564Z,100.00
2022-12-18T16:34:27.099Z,100.00
2022-12-18T16:39:33.194Z,100.00
2022-12-18T16:44:37.574Z,100.00
2022-12-18T16:49:40.637Z,100.00
2022-12-18T16:54:43.740Z,100.00
2022-12-18T16:59:47.264Z,100.00
2022-12-18T17:04:50.467Z,100.00
2022-12-18T17:09:54.509Z,100.00
2022-12-18T17:14:57.494Z,100.00
2022-12-18T17:20:01.223Z,100.00
2022-12-18T17:25:07.599Z,100.00
2022-12-18T17:30:12.187Z,100.00
2022-12-18T17:35:15.557Z,100.00
2022-12-18T17:40:19.064Z,100.00
2022-12-18T17:45:22.373Z,100.00
2022-12-18T17:50:26.198Z,100.00
2022-12-18T17:55:29.918Z,100.00
2022-12-18T18:00:34.149Z,100.00
2022-12-18T18:05:37.357Z,100.00
2022-12-18T18:10:41.182Z,100.00
2022-12-18T18:15:45.326Z,100.00
2022-12-18T18:20:49.465Z,100.00
2022-12-18T18:25:55.820Z,100.00
2022-12-18T18:30:59.545Z,100.00
2022-12-18T18:36:03.058Z,100.00
2022-12-18T18:41:06.673Z,100.00
2022-12-18T18:46:11.875Z,100.00
2022-12-18T18:51:21.500Z,100.00
2022-12-18T19:01:52.937Z,100.00
2022-12-18T19:06:56.206Z,100.00
2022-12-18T19:12:18.862Z,100.00
2022-12-18T19:17:26.389Z,100.00
2022-12-18T19:22:35.304Z,100.00
2022-12-18T19:27:40.327Z,100.00
2022-12-18T19:32:44.712Z,100.00
2022-12-18T19:37:48.803Z,100.00
2022-12-18T19:42:52.248Z,100.00
2022-12-18T19:47:59.737Z,100.00
2022-12-18T19:53:07.573Z,100.00
2022-12-18T19:58:13.033Z,100.00
2022-12-18T20:03:25.422Z,100.00
2022-12-18T20:08:33.994Z,100.00
2022-12-18T20:13:37.676Z,100.00
2022-12-18T20:18:41.585Z,100.00
2022-12-18T20:23:45.969Z,100.00
2022-12-18T20:28:49.282Z,100.00
2022-12-18T20:33:53.388Z,100.00
2022-12-18T20:39:00.569Z,100.00
2022-12-18T20:44:05.867Z,100.00
2022-12-18T20:49:13.094Z,100.00
2022-12-18T20:54:16.479Z,100.00
2022-12-18T20:59:20.014Z,100.00
2022-12-18T21:04:23.815Z,100.00
2022-12-18T21:09:27.338Z,100.00
2022-12-18T21:14:34.128Z,100.00
2022-12-18T21:19:37.644Z,100.00
2022-12-18T21:24:41.158Z,100.00
2022-12-18T21:29:44.265Z,100.00
2022-12-18T21:34:48.549Z,100.00
2022-12-18T21:39:52.213Z,100.00
2022-12-18T21:44:55.318Z,100.00
2022-12-18T21:49:58.456Z,100.00
2022-12-18T21:55:08.466Z,100.00
2022-12-18T22:00:18.971Z,100.00
2022-12-18T22:05:23.617Z,100.00
2022-12-18T22:10:26.933Z,100.00
2022-12-18T22:15:30.373Z,100.00
2022-12-18T22:20:33.446Z,100.00
2022-12-18T22:25:39.263Z,100.00
2022-12-18T22:30:43.469Z,100.00
2022-12-18T22:35:46.965Z,100.00
2022-12-18T22:40:50.781Z,100.00
2022-12-18T22:45:54.147Z,100.00
2022-12-18T22:50:59.009Z,100.00
2022-12-18T22:56:03.286Z,100.00
2022-12-18T23:01:07.240Z,100.00
2022-12-18T23:06:10.814Z,100.00
2022-12-18T23:11:14.948Z,100.00
2022-12-18T23:16:20.842Z,100.00
2022-12-18T23:21:24.431Z,100.00
2022-12-18T23:26:28.873Z,100.00
2022-12-18T23:31:33.581Z,100.00
2022-12-18T23:36:45.715Z,100.00
2022-12-18T23:41:49.964Z,100.00
2022-12-18T23:46:53.269Z,100.00
2022-12-18T23:51:56.480Z,100.00
2022-12-18T23:56:59.585Z,100.00
